Appleton, Colorado
Current Conditions -  °F | °C
As of 1:53 PM on Sunday 21 Dec 2014 (Local Time) from KGJT Reporting Station
Overcast Overcast  
Wind Chill: 33°   Ceiling: 1200
Heat Index: 33°   Visibility: 10mi
Dew Point: 32°   Wind: 0mph
Humidity: 96%   Direction: NA
Pressure: 29.95"   Gusts: NA
Location:  39.1857°N, 108.6°W
Report Text: KGJT 212053Z 00000KT 10SM OVC012 01/00 A2995 RMK AO2 SLP151 60000 T00060000 56024
Loading
Personal Weather Stations






























Interactive Weather Map New forecast layout! Learn more

10-Day Weather Forecast

Advertisements
Track Severe Weather on mobile